Latest Weather Observations for High Range (Wanganderry)

IDN60801

Issued at 10:35 pm EDT Tuesday 21 October 2014 (issued every 30 minutes, with the page automatically refreshed every 10 minutes)

About weather observations | Map of weather stations | Latest weather observations for NSW | Other Formats
Station Details ID: 068262 Name: HIGH RANGE AWS (WANGANDERRY) Lat: -34.33 Lon: 150.27 Height: 813.6 m
Data from the previous 72 hours. | See also: Recent months for locations in New South Wales
Date/Time
EDT
Temp
°C
App
Temp
°C
Dew
Point
Rel
Hum
%
Delta-T
°C
Wind Press
QNH
hPa
Press
MSL
hPa
Rain
since 9 am
mm
Dir
 
Spd
km/h
Gust
km/h
Spd
kts
Gust
kts
21/10:30pm 8.6 4.2 6.7 88 0.9 NE 19 26 10 14 1030.9 1029.4 0.0
21/10:00pm 8.7 4.3 6.7 87 1.0 NE 19 28 10 15 1030.8 1029.3 0.0
21/09:30pm 8.7 4.3 6.7 87 1.0 NE 19 26 10 14 1030.8 1029.3 0.0
21/09:00pm 8.8 4.3 6.8 87 1.0 NE 20 28 11 15 1030.7 1029.2 0.0
21/08:30pm 8.8 4.8 6.8 87 1.0 NE 17 24 9 13 1030.6 1029.1 0.0
21/08:00pm 9.0 5.1 7.0 87 1.0 NE 17 20 9 11 1030.4 1028.9 0.0
21/07:30pm 9.1 4.8 6.9 86 1.1 NE 19 24 10 13 1029.9 1028.4 0.0
21/07:00pm 9.1 5.2 7.1 87 1.0 NE 17 22 9 12 1029.9 1028.4 0.0
21/06:30pm 9.3 5.8 7.3 87 1.0 NE 15 20 8 11 1029.9 1028.4 0.0
21/06:00pm 9.3 5.4 7.3 87 1.0 NE 17 22 9 12 1029.8 1028.3 0.0
21/05:30pm 9.6 5.7 7.2 85 1.2 ENE 17 26 9 14 1029.8 1028.3 0.0
21/05:00pm 9.9 6.1 7.5 85 1.2 ENE 17 20 9 11 1029.9 1028.4 0.0
21/04:30pm 10.1 6.8 8.2 88 1.0 NE 15 20 8 11 1029.8 1028.3 0.0
21/04:00pm 9.9 5.9 8.2 89 0.9 ENE 19 24 10 13 1029.9 1028.4 0.0
21/03:30pm 10.5 6.9 8.4 87 1.1 NNE 17 22 9 12 1030.1 1028.7 0.0
21/03:00pm 9.4 5.4 8.3 93 0.6 ENE 19 26 10 14 1030.5 1029.0 0.0
21/02:30pm 9.8 6.5 8.2 90 0.8 ENE 15 22 8 12 1030.7 1029.2 0.0
21/02:00pm 10.0 6.3 7.9 87 1.1 NE 17 22 9 12 1031.1 1029.7 0.0
21/01:30pm 10.0 6.6 7.8 86 1.1 NE 15 24 8 13 1031.7 1030.2 0.0
21/01:00pm 10.2 6.5 7.8 85 1.2 ENE 17 22 9 12 1032.0 1030.5 0.0
21/12:30pm 10.4 6.7 7.8 84 1.3 ENE 17 22 9 12 1032.2 1030.8 0.0
21/12:00pm 9.8 6.4 7.7 87 1.0 ENE 15 20 8 11 1032.4 1031.0 0.0
21/11:30am 9.3 6.3 7.7 90 0.8 ENE 13 19 7 10 1032.6 1031.2 0.0
21/11:00am 9.1 4.9 7.5 90 0.8 NE 19 26 10 14 1032.7 1031.3 0.0
21/10:30am 8.9 5.2 7.8 93 0.5 ENE 17 24 9 13 1032.7 1031.3 0.0
21/10:00am 9.3 5.4 8.7 96 0.3 NE 19 26 10 14 1032.7 1031.3 0.0
21/09:30am 8.4 4.1 8.0 97 0.2 NE 20 32 11 17 1032.6 1031.2 0.0
21/09:00am 8.2 4.5 7.9 98 0.1 ENE 17 22 9 12 1032.4 1031.0 1.2
21/08:30am 8.1 4.4 7.8 98 0.1 ENE 17 30 9 16 1032.2 1030.8 1.2
21/08:00am 8.0 5.4 7.7 98 0.1 ENE 11 17 6 9 1032.0 1030.5 1.2
21/07:30am 7.7 5.0 7.4 98 0.1 E 11 15 6 8 1031.7 1030.2 1.2
21/07:00am 7.6 4.9 7.3 98 0.1 E 11 17 6 9 1031.2 1029.8 1.2
21/06:30am 7.4 4.3 7.1 98 0.1 E 13 22 7 12 1031.0 1029.5 1.2
21/06:00am 7.3 4.1 7.0 98 0.1 E 13 20 7 11 1030.8 1029.3 1.2
21/05:30am 7.2 4.8 6.9 98 0.1 E 9 17 5 9 1030.8 1029.3 1.2
21/05:00am 7.2 4.4 6.9 98 0.1 E 11 17 6 9 1030.7 1029.2 1.0
21/04:30am 7.2 3.6 6.9 98 0.1 E 15 20 8 11 1030.7 1029.2 1.0
21/04:00am 7.6 4.5 7.3 98 0.1 E 13 19 7 10 1030.8 1029.3 1.0
21/03:30am 8.0 5.0 7.7 98 0.1 E 13 19 7 10 1030.8 1029.3 0.8
21/03:00am 8.3 5.8 8.0 98 0.1 E 11 19 6 10 1031.0 1029.5 0.6
21/02:30am 8.3 5.4 8.0 98 0.1 E 13 17 7 9 1031.0 1029.5 0.4
21/02:00am 8.3 5.4 8.0 98 0.1 E 13 19 7 10 1031.2 1029.8 0.4
21/01:30am 8.3 5.4 8.0 98 0.1 ENE 13 19 7 10 1031.3 1029.9 0.2
21/01:00am 8.3 6.1 7.9 97 0.2 E 9 15 5 8 1031.6 1030.1 0.2
21/12:30am 8.3 5.3 7.7 96 0.3 E 13 19 7 10 1031.7 1030.2 0.2
21/12:00am 8.3 5.3 7.5 95 0.4 E 13 19 7 10 1031.9 1030.4 0.2
 
Date/Time
EDT
Temp
°C
App
Temp
°C
Dew
Point
Rel
Hum
%
Delta-T
°C
Wind Press
QNH
hPa
Press
MSL
hPa
Rain
since 9 am
mm
Dir
 
Spd
km/h
Gust
km/h
Spd
kts
Gust
kts
20/11:30pm 8.3 5.6 7.5 95 0.4 E 11 17 6 9 1032.0 1030.5 0.2
20/11:00pm 8.3 5.6 7.5 95 0.4 E 11 15 6 8 1032.1 1030.6 0.2
20/10:30pm 8.2 5.9 7.4 95 0.4 E 9 13 5 7 1032.1 1030.6 0.2
20/10:00pm 8.2 5.9 7.4 95 0.4 ENE 9 17 5 9 1032.1 1030.6 0.2
20/09:30pm 8.2 5.9 7.4 95 0.4 E 9 13 5 7 1032.0 1030.5 0.2
20/09:00pm 8.2 5.9 7.3 94 0.4 E 9 17 5 9 1031.9 1030.4 0.2
20/08:30pm 8.1 4.9 7.0 93 0.5 ESE 13 17 7 9 1031.6 1030.1 0.2
20/08:00pm 8.0 5.2 6.8 92 0.6 ESE 11 17 6 9 1031.2 1029.8 0.2
20/07:30pm 8.1 5.3 7.0 93 0.5 SE 11 15 6 8 1031.1 1029.7 0.2
20/07:00pm 8.1 4.6 7.3 95 0.4 SE 15 20 8 11 1030.9 1029.4 0.2
20/06:30pm 8.2 3.8 7.4 95 0.4 SE 20 30 11 16 1030.7 1029.2 0.2
20/06:00pm 9.1 5.9 8.5 96 0.3 ESE 15 20 8 11 1030.5 1029.0 0.2
20/05:30pm 9.2 6.0 8.3 94 0.5 ESE 15 24 8 13 1030.3 1028.8 0.0
20/05:00pm 10.1 6.6 8.7 91 0.7 SE 17 24 9 13 1030.1 1028.7 0.0
20/04:30pm 9.7 5.6 8.6 93 0.6 SE 20 28 11 15 1030.0 1028.5 0.0
20/04:00pm 10.2 6.4 9.0 92 0.6 SE 19 24 10 13 1030.1 1028.7 0.0
20/03:30pm 10.4 6.6 9.0 91 0.7 SE 19 24 10 13 1030.1 1028.7 0.0
20/03:00pm 11.3 8.2 8.7 84 1.3 SE 15 20 8 11 1030.1 1028.7 0.0
20/02:30pm 12.5 10.4 9.7 83 1.5 SE 11 17 6 9 1030.3 1028.8 0.0
20/02:00pm 12.2 8.9 9.4 83 1.5 ESE 17 22 9 12 1030.6 1029.1 0.0
20/01:30pm 11.3 6.9 9.0 86 1.2 SSE 22 28 12 15 1030.7 1029.2 0.0
20/01:00pm 11.9 8.5 9.1 83 1.5 SSE 17 20 9 11 1030.8 1029.3 0.0
20/12:30pm 11.9 8.1 9.1 83 1.5 SE 19 24 10 13 1030.9 1029.4 0.0
20/12:00pm 11.6 8.2 9.2 85 1.2 SE 17 22 9 12 1031.3 1029.9 0.0
20/11:30am 10.5 7.0 8.9 90 0.8 SE 17 22 9 12 1031.4 1030.0 0.0
20/11:00am 10.8 7.7 8.7 87 1.1 SE 15 19 8 10 1031.3 1029.9 0.0
20/10:30am 10.5 6.6 8.6 88 1.0 SE 19 26 10 14 1031.2 1029.8 0.0
20/10:00am 10.5 6.5 8.4 87 1.1 SE 19 22 10 12 1030.9 1029.4 0.0
20/09:30am 11.0 7.5 8.8 86 1.1 SE 17 24 9 13 1030.5 1029.0 0.0
20/09:00am 10.8 6.9 8.7 87 1.1 SE 19 22 10 12 1030.0 1028.5 0.0
20/08:30am 10.9 6.8 8.8 87 1.1 SE 20 33 11 18 1029.5 1028.0 0.0
20/08:00am 10.7 6.4 9.3 91 0.7 SE 22 35 12 19 1028.9 1027.3 0.0
20/07:30am 11.1 7.4 10.3 95 0.4 SSE 20 32 11 17 1028.1 1026.6 0.0
20/07:00am 11.7 7.3 10.4 92 0.7 S 24 37 13 20 1027.3 1025.8 0.0
20/06:30am 12.1 8.8 11.0 93 0.6 SSE 19 26 10 14 1026.6 1025.0 0.0
20/06:00am 11.5 7.3 9.8 89 0.9 S 22 26 12 14 1026.0 1024.5 0.0
20/05:30am 13.3 7.3 6.9 65 3.2 S 28 37 15 20 1025.2 1023.6 0.0
20/05:00am 14.8 7.7 5.3 53 4.7 S 32 35 17 19 1024.5 1022.9 0.0
20/04:30am 17.1 11.1 5.4 46 5.9 W 26 33 14 18 1024.0 1022.4 0.0
20/04:00am 17.3 11.4 5.6 46 5.9 W 26 32 14 17 1023.8 1022.2 0.0
20/03:30am 17.0 11.1 5.9 48 5.6 W 26 32 14 17 1024.0 1022.4 0.0
20/03:00am 17.1 10.5 6.0 48 5.6 W 30 39 16 21 1024.2 1022.6 0.0
20/02:30am 16.5 10.7 6.3 51 5.2 W 26 35 14 19 1024.5 1022.9 0.0
20/02:00am 16.7 11.3 6.2 50 5.3 WNW 24 30 13 16 1024.5 1022.9 0.0
20/01:30am 16.8 11.1 6.6 51 5.2 WNW 26 30 14 16 1025.0 1023.4 0.0
20/01:00am 17.1 12.6 6.9 51 5.3 WNW 20 28 11 15 1025.3 1023.7 0.0
20/12:30am 17.4 12.6 7.2 51 5.3 WNW 22 26 12 14 1025.6 1024.0 0.0
20/12:00am 17.0 11.8 7.4 53 5.0 WNW 24 26 13 14 1025.5 1023.9 0.0
 
Date/Time
EDT
Temp
°C
App
Temp
°C
Dew
Point
Rel
Hum
%
Delta-T
°C
Wind Press
QNH
hPa
Press
MSL
hPa
Rain
since 9 am
mm
Dir
 
Spd
km/h
Gust
km/h
Spd
kts
Gust
kts
19/11:30pm 16.8 12.4 7.4 54 4.9 W 20 24 11 13 1026.0 1024.5 0.0
19/11:00pm 16.4 12.3 7.9 57 4.4 W 19 22 10 12 1026.0 1024.5 0.0
19/10:30pm 16.7 13.5 8.4 58 4.4 W 15 19 8 10 1026.1 1024.6 0.0
19/10:00pm 16.8 13.5 8.2 57 4.5 WNW 15 19 8 10 1026.0 1024.5 0.0
19/09:30pm 18.0 14.8 8.6 54 5.1 WNW 15 19 8 10 1026.0 1024.5 0.0
19/09:00pm 17.6 14.1 8.7 56 4.8 WNW 17 19 9 10 1025.8 1024.3 0.0
19/08:30pm 17.6 14.8 8.7 56 4.8 WNW 13 15 7 8 1025.4 1023.8 0.0
19/08:00pm 18.1 15.7 8.7 54 5.0 W 11 15 6 8 1025.2 1023.6 0.0
19/07:30pm 18.3 14.2 8.6 53 5.2 WSW 20 24 11 13 1024.8 1023.3 0.0
19/07:00pm 18.5 14.5 9.0 54 5.1 SW 20 24 11 13 1024.6 1023.0 0.0
19/06:30pm 20.4 17.1 9.6 50 6.0 WSW 17 20 9 11 1024.4 1022.8 0.0
19/06:00pm 22.2 19.4 10.0 46 6.9 WSW 15 19 8 10 1024.1 1022.5 0.0
19/05:30pm 23.6 22.2 11.0 45 7.3 WSW 9 13 5 7 1024.1 1022.5 0.0
19/05:00pm 23.9 22.0 9.1 39 8.3 WSW 9 15 5 8 1024.1 1022.5 0.0
19/04:30pm 24.0 21.9 11.3 45 7.4 SW 13 17 7 9 1024.1 1022.5 0.0
19/04:00pm 24.0 21.9 9.9 41 8.0 WSW 11 20 6 11 1024.2 1022.6 0.0
19/03:30pm 23.9 22.5 9.5 40 8.1 WNW 7 19 4 10 1024.4 1022.8 0.0
19/03:00pm 23.5 21.3 10.9 45 7.2 WSW 13 30 7 16 1024.7 1023.2 0.0
19/02:30pm 23.4 20.9 11.1 46 7.1 SW 15 24 8 13 1025.3 1023.7 0.0
19/02:00pm 22.8 21.7 10.6 46 7.0 W 7 20 4 11 1025.7 1024.1 0.0
19/01:30pm 22.1 20.5 8.9 43 7.3 W 7 13 4 7 1025.9 1024.4 0.0
19/01:00pm 20.9 18.8 8.2 44 6.9 WNW 9 13 5 7 1025.9 1024.4 0.0
19/12:30pm 20.5 17.7 6.8 41 7.2 NNW 11 17 6 9 1026.1 1024.6 0.0
19/12:00pm 19.9 17.2 8.9 49 6.0 WNW 13 17 7 9 1026.6 1025.0 0.0
19/11:30am 19.4 17.1 9.0 51 5.7 WNW 11 15 6 8 1027.1 1025.6 0.0
19/11:00am 18.4 14.8 6.9 47 6.0 WNW 15 17 8 9 1027.4 1025.9 0.0
19/10:30am 17.9 14.9 7.6 51 5.4 WNW 13 17 7 9 1027.6 1026.0 0.0
19/10:00am 16.9 13.2 8.1 56 4.6 WNW 17 22 9 12 1027.9 1026.3 0.0
19/09:30am 15.9 11.8 7.7 58 4.3 WNW 19 22 10 12 1028.0 1026.5 0.0
19/09:00am 15.6 11.7 6.9 56 4.4 WNW 17 20 9 11 1028.0 1026.5 0.0
19/08:30am 15.5 12.7 7.0 57 4.4 NW 11 17 6 9 1028.0 1026.5 0.0
19/08:00am 14.0 11.2 7.1 63 3.5 NNW 11 13 6 7 1027.4 1025.9 0.0
19/07:30am 13.0 10.1 6.4 64 3.3 NNW 11 13 6 7 1027.2 1025.7 0.0
19/07:00am 11.6 9.0 6.1 69 2.7 NNW 9 11 5 6 1027.1 1025.6 0.0
19/06:30am 10.5 7.8 5.5 71 2.4 N 9 11 5 6 1026.7 1025.1 0.0
19/06:00am 9.6 6.2 5.8 77 1.8 N 13 17 7 9 1026.5 1024.9 0.0
19/05:30am 8.8 5.5 6.4 85 1.2 N 13 17 7 9 1026.4 1024.8 0.0
19/05:00am 8.2 5.6 6.0 86 1.0 N 9 11 5 6 1026.5 1024.9 0.0
19/04:30am 8.3 5.3 6.1 86 1.1 NNW 11 13 6 7 1026.7 1025.1 0.0
19/04:00am 8.1 5.1 6.2 88 0.9 N 11 13 6 7 1026.7 1025.1 0.0
19/03:30am 7.8 5.2 5.9 88 0.9 N 9 11 5 6 1026.8 1025.2 0.0
19/03:00am 7.6 4.6 6.1 90 0.7 N 11 11 6 6 1027.0 1025.5 0.0
19/02:30am 7.5 4.1 6.1 91 0.7 N 13 17 7 9 1026.9 1025.4 0.0
19/02:00am 6.9 3.8 5.7 92 0.6 NNE 11 13 6 7 1027.1 1025.6 0.0
19/01:30am 7.1 3.7 5.9 92 0.6 N 13 15 7 8 1027.6 1026.0 0.0
19/01:00am 7.5 3.7 6.0 90 0.7 NNE 15 19 8 10 1027.7 1026.1 0.0
19/12:30am 7.8 4.0 5.9 88 0.9 N 15 19 8 10 1028.1 1026.6 0.0
19/12:00am 7.9 3.8 6.2 89 0.8 N 17 19 9 10 1028.3 1026.8 0.0
 
Date/Time
EDT
Temp
°C
App
Temp
°C
Dew
Point
Rel
Hum
%
Delta-T
°C
Wind Press
QNH
hPa
Press
MSL
hPa
Rain
since 9 am
mm
Dir
 
Spd
km/h
Gust
km/h
Spd
kts
Gust
kts
18/11:30pm 7.4 3.7 6.2 92 0.6 NNE 15 19 8 10 1028.3 1026.8 0.0
18/11:00pm 7.5 3.8 6.3 92 0.6 NNE 15 19 8 10 1028.4 1026.9 0.0

Other Formats:

Comma delimited format used in spreadsheet applications
http://www.bom.gov.au/fwo/IDN60801/IDN60801.99742.axf

JavaScript Object Notation format (JSON) in row-major order
http://www.bom.gov.au/fwo/IDN60801/IDN60801.99742.json